createdAt,value
2019-03-01T00:02:25.402Z,90.86
2019-03-01T00:07:55.438Z,91.39
2019-03-01T00:13:26.439Z,90.88
2019-03-01T00:19:12.701Z,90.38
2019-03-01T00:24:43.203Z,89.26
2019-03-01T00:30:30.526Z,88.73
2019-03-01T00:36:18.275Z,88.91
2019-03-01T00:42:12.283Z,89.36
2019-03-01T00:47:17.214Z,89.35
2019-03-01T00:52:21.336Z,89.64
2019-03-01T00:57:25.651Z,90.26
2019-03-01T01:02:29.725Z,90.23
2019-03-01T01:07:33.780Z,89.84
2019-03-01T01:12:37.886Z,90.03
2019-03-01T01:17:43.208Z,89.79
2019-03-01T01:22:47.272Z,89.90
2019-03-01T01:27:52.726Z,90.25
2019-03-01T01:32:56.811Z,90.51
2019-03-01T01:38:06.092Z,90.86
2019-03-01T01:43:10.516Z,91.06
2019-03-01T01:48:14.654Z,91.38
2019-03-01T01:53:18.671Z,91.45
2019-03-01T01:58:22.720Z,92.26
2019-03-01T02:03:26.872Z,93.37
2019-03-01T02:08:31.071Z,93.95
2019-03-01T02:13:35.083Z,94.42
2019-03-01T02:18:39.098Z,94.73
2019-03-01T02:23:43.179Z,95.27
2019-03-01T02:28:47.284Z,95.31
2019-03-01T02:33:51.381Z,95.82
2019-03-01T02:38:55.524Z,96.37
2019-03-01T02:43:59.872Z,96.74
2019-03-01T02:49:03.897Z,97.19
2019-03-01T02:54:07.991Z,97.52
2019-03-01T02:59:12.079Z,97.91
2019-03-01T03:04:16.803Z,98.08
2019-03-01T03:09:21.165Z,97.88
2019-03-01T03:14:25.215Z,98.19
2019-03-01T03:19:29.262Z,98.81
2019-03-01T03:24:33.300Z,99.65
2019-03-01T03:29:37.348Z,100.00
2019-03-01T03:34:41.760Z,100.00
2019-03-01T03:39:45.801Z,100.00
2019-03-01T03:44:49.805Z,100.00
2019-03-01T03:49:53.881Z,100.00
2019-03-01T03:54:57.943Z,100.00
2019-03-01T04:00:04.007Z,100.00
2019-03-01T04:05:08.084Z,100.00
2019-03-01T04:10:12.267Z,100.00
2019-03-01T04:15:17.360Z,100.00
2019-03-01T04:20:21.638Z,100.00
2019-03-01T04:25:26.037Z,100.00
2019-03-01T04:30:30.332Z,100.00
2019-03-01T04:35:34.504Z,100.00
2019-03-01T04:40:39.451Z,100.00
2019-03-01T04:45:43.530Z,100.00
2019-03-01T04:50:47.568Z,100.00
2019-03-01T04:55:51.893Z,100.00
2019-03-01T05:00:56.105Z,100.00
2019-03-01T05:06:00.561Z,100.00
2019-03-01T05:11:04.648Z,100.00
2019-03-01T05:16:09.903Z,100.00
2019-03-01T05:21:14.189Z,100.00
2019-03-01T05:26:20.136Z,100.00
2019-03-01T05:31:25.043Z,100.00
2019-03-01T05:36:29.151Z,100.00
2019-03-01T05:41:33.193Z,100.00
2019-03-01T05:46:37.229Z,100.00
2019-03-01T05:51:41.299Z,100.00
2019-03-01T05:56:45.339Z,100.00
2019-03-01T06:02:27.374Z,100.00
2019-03-01T06:08:18.531Z,100.00
2019-03-01T06:13:55.572Z,100.00
2019-03-01T06:19:14.600Z,100.00
2019-03-01T06:25:05.839Z,100.00
2019-03-01T06:30:41.529Z,100.00
2019-03-01T06:36:08.500Z,100.00
2019-03-01T06:41:46.766Z,100.00
2019-03-01T06:47:22.011Z,100.00
2019-03-01T06:52:26.055Z,100.00
2019-03-01T06:57:30.110Z,100.00
2019-03-01T07:02:34.180Z,100.00
2019-03-01T07:07:38.639Z,100.00
2019-03-01T07:12:42.753Z,100.00
2019-03-01T07:17:47.001Z,100.00
2019-03-01T07:22:51.325Z,100.00
2019-03-01T07:27:55.422Z,100.00
2019-03-01T07:32:59.462Z,100.00
2019-03-01T07:38:03.633Z,100.00
2019-03-01T07:43:07.845Z,100.00
2019-03-01T07:48:12.485Z,100.00
2019-03-01T07:53:16.561Z,100.00
2019-03-01T07:58:21.541Z,100.00
2019-03-01T08:03:26.627Z,100.00
2019-03-01T08:08:30.687Z,100.00
2019-03-01T08:13:34.985Z,100.00
2019-03-01T08:18:40.242Z,100.00
2019-03-01T08:23:44.835Z,100.00
2019-03-01T08:28:48.924Z,100.00
2019-03-01T08:33:52.982Z,100.00
2019-03-01T08:38:57.045Z,100.00
2019-03-01T08:44:01.112Z,100.00
2019-03-01T08:49:06.708Z,100.00
2019-03-01T08:54:11.358Z,100.00
2019-03-01T08:59:17.454Z,100.00
2019-03-01T09:04:21.618Z,100.00
2019-03-01T09:09:25.752Z,100.00
2019-03-01T09:14:29.886Z,100.00
2019-03-01T09:19:33.956Z,100.00
2019-03-01T09:24:38.205Z,100.00
2019-03-01T09:29:42.335Z,100.00
2019-03-01T09:34:46.337Z,100.00
2019-03-01T09:39:53.744Z,100.00
2019-03-01T09:44:56.630Z,100.00
2019-03-01T09:50:01.194Z,100.00
2019-03-01T09:55:06.239Z,100.00
2019-03-01T10:00:11.981Z,100.00
2019-03-01T10:05:18.917Z,100.00
2019-03-01T10:10:26.858Z,100.00
2019-03-01T10:15:33.017Z,100.00
2019-03-01T10:20:38.528Z,100.00
2019-03-01T10:25:45.139Z,100.00
2019-03-01T10:30:53.438Z,100.00
2019-03-01T10:35:59.310Z,100.00
2019-03-01T10:41:06.813Z,100.00
2019-03-01T10:46:10.973Z,100.00
2019-03-01T10:51:15.278Z,100.00
2019-03-01T10:56:19.595Z,100.00
2019-03-01T11:01:23.808Z,100.00
2019-03-01T11:06:28.282Z,100.00
2019-03-01T11:11:32.553Z,100.00
2019-03-01T11:16:37.944Z,100.00
2019-03-01T11:21:42.274Z,100.00
2019-03-01T11:26:48.357Z,100.00
2019-03-01T11:31:54.664Z,100.00
2019-03-01T11:37:01.637Z,100.00
2019-03-01T11:42:08.323Z,100.00
2019-03-01T11:47:13.118Z,100.00
2019-03-01T11:52:17.147Z,100.00
2019-03-01T11:57:21.772Z,100.00
2019-03-01T12:02:26.171Z,100.00
2019-03-01T12:07:30.217Z,100.00
2019-03-01T12:12:34.258Z,100.00
2019-03-01T12:17:38.360Z,100.00
2019-03-01T12:22:42.743Z,100.00
2019-03-01T12:27:46.827Z,100.00
2019-03-01T12:32:50.897Z,100.00
2019-03-01T12:37:55.223Z,99.57
2019-03-01T12:42:59.271Z,98.42
2019-03-01T12:48:04.277Z,97.05
2019-03-01T12:53:09.036Z,97.24
2019-03-01T12:58:19.458Z,98.52
2019-03-01T13:03:19.113Z,98.00
2019-03-01T13:08:23.180Z,96.72
2019-03-01T13:13:27.222Z,95.39
2019-03-01T13:18:32.269Z,93.88
2019-03-01T13:23:37.573Z,93.12
2019-03-01T13:28:43.915Z,93.76
2019-03-01T13:33:48.032Z,93.12
2019-03-01T13:38:54.034Z,93.46
2019-03-01T13:44:04.085Z,94.98
2019-03-01T13:49:11.524Z,94.48
2019-03-01T13:54:17.856Z,95.59
2019-03-01T13:59:22.583Z,96.51
2019-03-01T14:04:32.936Z,95.57
2019-03-01T14:09:39.459Z,96.84
2019-03-01T14:14:46.372Z,96.74
2019-03-01T14:19:52.095Z,97.22
2019-03-01T14:24:58.603Z,95.49
2019-03-01T14:30:04.270Z,94.18
2019-03-01T14:35:10.910Z,90.91
2019-03-01T14:40:19.083Z,91.13
2019-03-01T14:45:26.730Z,88.48
2019-03-01T14:50:34.551Z,86.78
2019-03-01T14:55:42.652Z,87.14
2019-03-01T15:00:53.498Z,86.63
2019-03-01T15:05:59.069Z,84.05
2019-03-01T15:11:09.004Z,83.32
2019-03-01T15:16:15.371Z,82.92
2019-03-01T15:21:21.991Z,83.31
2019-03-01T15:26:28.040Z,82.55
2019-03-01T15:31:32.296Z,82.68
2019-03-01T15:36:36.436Z,82.69
2019-03-01T15:41:42.111Z,81.56
2019-03-01T15:46:49.975Z,82.52
2019-03-01T15:51:53.179Z,83.56
2019-03-01T15:56:57.368Z,83.58
2019-03-01T16:02:02.004Z,84.14
2019-03-01T16:07:06.280Z,83.83
2019-03-01T16:12:10.602Z,84.01
2019-03-01T16:17:14.835Z,81.72
2019-03-01T16:22:19.673Z,80.71
2019-03-01T16:27:23.975Z,79.62
2019-03-01T16:32:28.406Z,76.43
2019-03-01T16:37:32.761Z,77.76
2019-03-01T16:42:38.676Z,77.92
2019-03-01T16:47:43.057Z,76.30
2019-03-01T16:52:47.054Z,72.91
2019-03-01T16:57:52.268Z,73.21
2019-03-01T17:02:57.196Z,73.50
2019-03-01T17:08:05.654Z,72.48
2019-03-01T17:13:07.815Z,72.09
2019-03-01T17:18:12.750Z,72.29
2019-03-01T17:23:16.991Z,72.52
2019-03-01T17:28:23.553Z,72.51
2019-03-01T17:33:27.281Z,72.06
2019-03-01T17:38:31.399Z,71.95
2019-03-01T17:43:35.431Z,72.82
2019-03-01T17:48:39.557Z,72.71
2019-03-01T17:53:46.486Z,73.82
2019-03-01T17:58:49.647Z,74.34
2019-03-01T18:03:53.691Z,74.23
2019-03-01T18:08:57.836Z,74.49
2019-03-01T18:14:01.863Z,74.13
2019-03-01T18:19:05.969Z,72.79
2019-03-01T18:24:10.995Z,72.81
2019-03-01T18:29:16.170Z,72.26
2019-03-01T18:34:20.219Z,73.10
2019-03-01T18:39:24.557Z,72.76
2019-03-01T18:44:28.667Z,72.79
2019-03-01T18:49:32.827Z,72.80
2019-03-01T18:54:40.056Z,73.20
2019-03-01T18:59:43.315Z,72.74
2019-03-01T19:04:47.382Z,73.31
2019-03-01T19:09:56.373Z,74.43
2019-03-01T19:15:00.974Z,75.89
2019-03-01T19:20:07.160Z,76.47
2019-03-01T19:25:14.740Z,76.36
2019-03-01T19:30:22.475Z,76.74
2019-03-01T19:35:30.001Z,77.02
2019-03-01T19:40:43.449Z,77.08
2019-03-01T19:45:50.347Z,76.22
2019-03-01T19:50:58.373Z,76.21
2019-03-01T19:56:03.983Z,77.12
2019-03-01T20:01:11.266Z,77.43
2019-03-01T20:06:17.133Z,77.83
2019-03-01T20:11:23.419Z,77.68
2019-03-01T20:16:28.410Z,77.85
2019-03-01T20:21:33.273Z,77.78
2019-03-01T20:26:39.780Z,78.21
2019-03-01T20:31:44.137Z,78.65
2019-03-01T20:36:49.573Z,78.87
2019-03-01T20:41:54.609Z,78.61
2019-03-01T20:46:58.771Z,79.71
2019-03-01T20:52:03.532Z,79.49
2019-03-01T20:57:07.814Z,80.20
2019-03-01T21:02:13.114Z,79.86
2019-03-01T21:07:17.775Z,80.63
2019-03-01T21:12:21.855Z,79.75
2019-03-01T21:17:25.910Z,79.66
2019-03-01T21:22:29.963Z,80.09
2019-03-01T21:27:34.265Z,80.27
2019-03-01T21:32:38.314Z,79.83
2019-03-01T21:37:42.326Z,80.29
2019-03-01T21:42:46.656Z,80.51
2019-03-01T21:47:50.959Z,79.77
2019-03-01T21:52:55.279Z,80.98
2019-03-01T21:57:59.627Z,80.98
2019-03-01T22:03:07.697Z,81.52
2019-03-01T22:08:12.876Z,81.64
2019-03-01T22:13:18.613Z,82.83
2019-03-01T22:18:26.056Z,82.15
2019-03-01T22:23:35.415Z,82.67
2019-03-01T22:28:46.323Z,84.28
2019-03-01T22:33:55.633Z,85.12
2019-03-01T22:39:04.933Z,86.30
2019-03-01T22:44:09.371Z,86.23
2019-03-01T22:49:13.788Z,85.95
2019-03-01T22:54:18.914Z,86.50
2019-03-01T22:59:25.339Z,87.49
2019-03-01T23:04:30.386Z,88.50
2019-03-01T23:09:42.724Z,89.36
2019-03-01T23:14:47.879Z,90.93
2019-03-01T23:19:52.751Z,93.00
2019-03-01T23:24:56.876Z,93.46
2019-03-01T23:30:00.885Z,94.74
2019-03-01T23:35:04.952Z,95.34
2019-03-01T23:40:09.261Z,95.40
2019-03-01T23:45:13.749Z,95.22
2019-03-01T23:50:19.498Z,94.98
2019-03-01T23:55:23.613Z,94.84
